Time;durP1;ratioP1;P1;durP2;ratioP2;P2;SDS_P1;SDS_P2;PMS_P1;PMS_P2;Temp;Humidity;BMP_temperature;BMP_pressure;BME280_temperature;BME280_humidity;BME280_pressure;Samples;Min_cycle;Max_cycle;Signal;HPM_P1;HPM_P2
2021/12/21 00:00:16;;;;;;;18.65;9.95;;;;;;;2.84;73.51;100837.59;5075638;28;20066;-84
2021/12/21 00:02:44;;;;;;;19.25;10.05;;;;;;;2.85;73.59;100836.66;5075122;28;20021;-84
2021/12/21 00:05:16;;;;;;;18.60;9.55;;;;;;;2.81;73.52;100835.91;5076058;28;20043;-85
2021/12/21 00:07:42;;;;;;;17.35;8.82;;;;;;;2.82;73.33;100834.13;5093365;28;20024;-86
2021/12/21 00:10:08;;;;;;;20.27;9.18;;;;;;;2.79;73.56;100839.56;5076771;28;20077;-84
2021/12/21 00:12:46;;;;;;;16.52;8.70;;;;;;;2.80;73.08;100841.28;5076657;28;20036;-85
2021/12/21 00:15:23;;;;;;;17.17;8.85;;;;;;;2.80;73.54;100836.84;5075396;28;20024;-86
2021/12/21 00:17:56;;;;;;;19.52;9.32;;;;;;;2.81;73.58;100835.91;5077751;28;20032;-84
2021/12/21 00:23:18;;;;;;;19.70;9.55;;;;;;;2.83;73.36;100830.56;5092296;28;20036;-85
2021/12/21 00:25:44;;;;;;;17.10;10.18;;;;;;;2.84;73.35;100825.25;5091719;28;20032;-84
2021/12/21 00:28:09;;;;;;;20.00;10.95;;;;;;;2.78;73.10;100822.00;5076758;28;20050;-84
2021/12/21 00:30:34;;;;;;;18.98;10.73;;;;;;;2.74;73.28;100816.00;5075815;28;20098;-85
2021/12/21 00:33:00;;;;;;;19.42;9.88;;;;;;;2.76;73.48;100816.78;5091181;28;20036;-86
2021/12/21 00:35:25;;;;;;;20.23;9.48;;;;;;;2.71;73.45;100816.13;5074786;28;20100;-84
2021/12/21 00:37:50;;;;;;;18.05;9.15;;;;;;;2.68;73.37;100818.03;5091804;28;20055;-85
2021/12/21 00:40:16;;;;;;;15.15;8.20;;;;;;;2.65;73.08;100816.41;5073863;28;20090;-84
2021/12/21 00:42:41;;;;;;;15.75;8.18;;;;;;;2.69;73.52;100817.13;5075497;28;20033;-83
2021/12/21 00:45:07;;;;;;;19.33;8.48;;;;;;;2.67;73.25;100813.69;5092069;28;20025;-85
2021/12/21 00:47:35;;;;;;;16.02;8.73;;;;;;;2.69;73.70;100807.41;5074834;28;20044;-84
2021/12/21 00:50:03;;;;;;;15.93;9.05;;;;;;;2.65;73.04;100813.75;5090711;28;20045;-84
2021/12/21 00:52:28;;;;;;;19.05;10.52;;;;;;;2.58;73.36;100811.44;5075986;28;20031;-85
2021/12/21 00:54:54;;;;;;;22.80;11.55;;;;;;;2.54;73.02;100808.09;5092903;28;20037;-85
2021/12/21 00:57:19;;;;;;;19.63;11.32;;;;;;;2.52;73.22;100808.16;5075430;28;20028;-84
2021/12/21 00:59:45;;;;;;;18.92;10.90;;;;;;;2.53;72.64;100809.88;5076573;28;20456;-84
2021/12/21 01:02:11;;;;;;;20.65;11.15;;;;;;;2.52;72.91;100813.44;5075261;28;20036;-85
2021/12/21 01:04:42;;;;;;;17.25;10.30;;;;;;;2.50;73.20;100812.63;5075212;28;20048;-85
2021/12/21 01:13:10;;;;;;;11.65;6.57;;;;;;;2.43;73.45;100810.34;5092381;28;20105;-85
2021/12/21 01:17:57;;;;;;;13.10;7.05;;;;;;;2.43;73.21;100803.28;5091737;28;20040;-84
2021/12/21 01:20:40;;;;;;;15.60;7.20;;;;;;;2.41;73.24;100805.13;5090588;28;20036;-84
2021/12/21 01:25:52;;;;;;;11.38;7.35;;;;;;;2.44;73.47;100797.06;5091767;28;21010;-85
2021/12/21 01:28:32;;;;;;;12.90;7.07;;;;;;;2.39;73.06;100785.84;5075199;28;20040;-85
2021/12/21 01:31:15;;;;;;;15.02;7.75;;;;;;;2.35;73.10;100788.66;5076080;28;20342;-85
2021/12/21 01:33:55;;;;;;;14.05;8.23;;;;;;;2.31;73.00;100787.06;5077107;28;20039;-85
2021/12/21 01:36:32;;;;;;;14.70;7.72;;;;;;;2.34;73.29;100785.16;5077172;28;20466;-85
2021/12/21 01:39:10;;;;;;;15.30;8.25;;;;;;;2.35;73.24;100783.38;5075170;28;20059;-85
2021/12/21 01:41:56;;;;;;;18.65;8.30;;;;;;;2.34;73.01;100793.06;5076248;28;20051;-84
2021/12/21 01:49:44;;;;;;;19.00;10.88;;;;;;;2.32;72.86;100786.16;5090135;28;20044;-83
2021/12/21 01:52:14;;;;;;;16.48;10.07;;;;;;;2.33;73.06;100790.50;5073400;28;20058;-84
2021/12/21 01:54:41;;;;;;;18.67;9.45;;;;;;;2.34;73.17;100787.81;5075083;28;20047;-84
2021/12/21 01:57:07;;;;;;;17.48;8.75;;;;;;;2.35;73.25;100786.03;5074937;28;20032;-85
2021/12/21 01:59:34;;;;;;;12.60;7.35;;;;;;;2.35;73.25;100783.38;5092052;28;20431;-83
2021/12/21 02:02:08;;;;;;;16.42;8.77;;;;;;;2.33;72.90;100782.59;5072345;28;20047;-86
2021/12/21 02:04:37;;;;;;;13.45;8.55;;;;;;;2.30;73.11;100777.44;5072751;28;20058;-86
2021/12/21 02:07:03;;;;;;;16.58;8.85;;;;;;;2.28;72.67;100781.94;5073476;28;20032;-84
2021/12/21 02:09:37;;;;;;;13.70;8.90;;;;;;;2.19;72.98;100770.84;5074626;28;20036;-84
2021/12/21 02:12:07;;;;;;;15.63;8.48;;;;;;;2.20;73.06;100763.78;5073552;28;20045;-83
2021/12/21 02:14:32;;;;;;;13.85;7.40;;;;;;;2.20;72.86;100766.44;5072959;28;20032;-83
2021/12/21 02:17:24;;;;;;;12.15;6.47;;;;;;;2.24;72.68;100767.16;5073535;28;20058;-84
2021/12/21 02:20:06;;;;;;;11.40;6.45;;;;;;;2.25;73.07;100761.81;5089715;28;20075;-84
2021/12/21 02:22:35;;;;;;;10.70;5.30;;;;;;;2.28;73.47;100766.09;5090719;28;20036;-84
2021/12/21 02:25:30;;;;;;;10.05;5.72;;;;;;;2.26;73.21;100763.53;5074335;28;20043;-84
2021/12/21 02:30:30;;;;;;;11.10;5.30;;;;;;;2.21;72.82;100769.00;5089996;28;20090;-85
2021/12/21 02:32:55;;;;;;;8.70;5.28;;;;;;;2.20;73.17;100769.91;5071255;28;20074;-84
2021/12/21 02:35:20;;;;;;;10.63;5.55;;;;;;;2.18;72.73;100779.69;5090402;28;20033;-83
2021/12/21 02:37:46;;;;;;;12.23;5.20;;;;;;;2.16;72.73;100767.47;5074464;28;20027;-83
2021/12/21 02:40:11;;;;;;;12.65;4.80;;;;;;;2.18;73.14;100760.34;5072335;28;20024;-86
2021/12/21 02:42:44;;;;;;;8.77;4.80;;;;;;;2.19;73.12;100772.63;5073682;28;20052;-84
2021/12/21 02:45:11;;;;;;;10.25;4.57;;;;;;;2.12;72.86;100774.66;5056904;28;20032;-84
2021/12/21 02:47:37;;;;;;;10.25;5.18;;;;;;;2.08;72.80;100769.59;5089160;28;20891;-83
2021/12/21 02:50:03;;;;;;;8.88;4.63;;;;;;;2.06;73.04;100764.38;5073542;28;20095;-84
2021/12/21 02:52:28;;;;;;;10.45;4.55;;;;;;;2.08;72.78;100764.31;5072602;28;20032;-84
2021/12/21 02:54:53;;;;;;;7.93;4.50;;;;;;;2.09;73.25;100764.25;5073781;28;20020;-85
2021/12/21 02:57:18;;;;;;;10.98;5.20;;;;;;;2.11;73.22;100765.03;5072908;28;20861;-84
2021/12/21 02:59:44;;;;;;;9.25;4.88;;;;;;;2.06;72.83;100763.53;5090542;28;20057;-85
2021/12/21 03:02:09;;;;;;;8.43;4.72;;;;;;;2.07;72.77;100771.38;5072827;28;21063;-84
2021/12/21 03:04:34;;;;;;;8.80;4.57;;;;;;;2.06;72.46;100767.00;5077032;28;20055;-84
2021/12/21 03:12:11;;;;;;;10.45;5.65;;;;;;;2.05;72.37;100754.75;5094829;28;20097;-84
2021/12/21 03:14:37;;;;;;;11.60;5.75;;;;;;;2.07;72.72;100759.97;5077527;28;20501;-84
2021/12/21 03:17:04;;;;;;;7.78;5.15;;;;;;;2.01;72.45;100753.16;5076514;28;20036;-85
2021/12/21 03:19:29;;;;;;;9.90;5.22;;;;;;;2.03;72.25;100756.59;5076559;28;20104;-83
2021/12/21 03:21:54;;;;;;;9.68;5.60;;;;;;;1.96;71.96;100752.50;5093086;28;20066;-85
2021/12/21 03:24:20;;;;;;;8.85;4.93;;;;;;;1.94;72.63;100751.72;5078507;28;20070;-84
2021/12/21 03:26:45;;;;;;;10.75;4.78;;;;;;;1.92;72.12;100744.78;5094785;28;20043;-84
2021/12/21 03:29:11;;;;;;;9.98;5.03;;;;;;;1.90;72.13;100747.47;5077017;28;20090;-85
2021/12/21 03:31:36;;;;;;;8.75;4.82;;;;;;;1.87;72.28;100745.78;5093740;28;20060;-85
2021/12/21 03:34:02;;;;;;;10.25;4.95;;;;;;;1.86;72.96;100753.78;5076781;28;20035;-85
2021/12/21 03:36:28;;;;;;;9.73;4.57;;;;;;;1.86;72.27;100751.13;5075145;28;20047;-85
2021/12/21 03:39:00;;;;;;;7.25;3.75;;;;;;;1.89;72.48;100748.38;5078303;28;20068;-85
2021/12/21 03:41:26;;;;;;;7.65;4.38;;;;;;;1.91;72.05;100745.72;5075579;28;20096;-85
2021/12/21 03:43:52;;;;;;;6.95;4.65;;;;;;;1.78;72.63;100748.81;5093519;28;20096;-84
2021/12/21 03:46:17;;;;;;;7.45;4.30;;;;;;;1.84;72.84;100747.72;5074974;28;20116;-84
2021/12/21 03:48:47;;;;;;;9.85;4.85;;;;;;;1.88;72.53;100755.44;5092305;28;20036;-84
2021/12/21 03:51:18;;;;;;;8.57;4.80;;;;;;;1.87;72.25;100744.94;5076288;28;20043;-84
2021/12/21 03:53:44;;;;;;;8.43;4.38;;;;;;;1.80;72.19;100746.97;5092988;28;20475;-85
2021/12/21 03:58:41;;;;;;;6.18;4.03;;;;;;;1.82;71.97;100752.19;5092523;28;20075;-85
2021/12/21 04:01:07;;;;;;;6.97;3.95;;;;;;;1.85;72.20;100752.91;5075010;28;20573;-85
2021/12/21 04:03:32;;;;;;;9.32;4.20;;;;;;;1.82;72.05;100760.09;5092353;28;20502;-86
2021/12/21 04:05:58;;;;;;;11.00;4.43;;;;;;;1.80;72.11;100749.63;5092371;28;20044;-84
2021/12/21 04:08:23;;;;;;;10.50;4.50;;;;;;;1.82;72.27;100746.91;5076185;28;20031;-85
2021/12/21 04:10:48;;;;;;;9.25;4.03;;;;;;;1.81;72.06;100746.06;5075790;28;20067;-84
2021/12/21 04:13:14;;;;;;;7.75;4.28;;;;;;;1.78;71.66;100738.28;5076984;28;20055;-84
2021/12/21 04:15:43;;;;;;;9.35;4.25;;;;;;;1.81;71.93;100745.19;5076436;28;20036;-84
2021/12/21 04:18:10;;;;;;;7.05;4.15;;;;;;;1.78;72.08;100742.69;5092374;28;20100;-85
2021/12/21 04:20:36;;;;;;;6.75;3.90;;;;;;;1.76;72.10;100741.91;5074435;28;20071;-84
2021/12/21 04:23:01;;;;;;;6.85;3.45;;;;;;;1.68;71.82;100739.56;5092596;28;20028;-83
2021/12/21 04:25:26;;;;;;;5.15;3.25;;;;;;;1.63;71.81;100735.41;5073486;28;20036;-85
2021/12/21 04:27:52;;;;;;;6.93;3.45;;;;;;;1.62;72.01;100734.56;5076820;28;20028;-84
2021/12/21 04:30:17;;;;;;;6.55;3.58;;;;;;;1.63;71.91;100735.41;5075308;28;20099;-84
2021/12/21 04:32:42;;;;;;;6.13;3.60;;;;;;;1.62;71.84;100731.06;5077351;28;20070;-85
2021/12/21 04:35:09;;;;;;;4.10;2.80;;;;;;;1.60;71.97;100730.28;5091546;28;20932;-85
2021/12/21 04:37:41;;;;;;;6.63;3.45;;;;;;;1.57;71.59;100732.09;5093625;28;20070;-85
2021/12/21 04:40:12;;;;;;;5.65;3.20;;;;;;;1.57;71.87;100725.97;5076354;28;20062;-83
2021/12/21 04:42:37;;;;;;;5.72;2.80;;;;;;;1.55;71.86;100727.81;5075622;28;20036;-85
2021/12/21 04:45:03;;;;;;;7.00;2.95;;;;;;;1.57;71.87;100725.97;5075189;28;20024;-83
2021/12/21 04:47:28;;;;;;;4.68;3.20;;;;;;;1.59;71.71;100726.78;5076129;28;20036;-85
2021/12/21 04:49:54;;;;;;;6.63;3.42;;;;;;;1.61;71.66;100727.56;5074457;28;20035;-84
2021/12/21 04:52:19;;;;;;;5.78;3.00;;;;;;;1.61;71.59;100717.03;5075069;28;20035;-85
2021/12/21 04:54:45;;;;;;;5.53;2.65;;;;;;;1.57;71.14;100720.72;5091755;28;20035;-84
2021/12/21 04:57:10;;;;;;;4.13;2.60;;;;;;;1.57;71.93;100721.56;5074695;28;20144;-84
2021/12/21 04:59:35;;;;;;;4.65;2.88;;;;;;;1.54;71.92;100728.75;5074427;28;20032;-85
2021/12/21 05:02:01;;;;;;;5.53;2.80;;;;;;;1.56;71.54;100729.53;5074138;28;20454;-84
2021/12/21 05:04:26;;;;;;;6.47;3.38;;;;;;;1.55;71.13;100727.81;5073758;28;20060;-86
2021/12/21 05:06:52;;;;;;;5.55;2.70;;;;;;;1.53;71.50;100721.75;5073893;28;20051;-85
2021/12/21 05:09:25;;;;;;;5.10;2.75;;;;;;;1.53;71.21;100724.38;5074421;28;20035;-84
2021/12/21 05:11:50;;;;;;;4.43;2.72;;;;;;;1.55;71.14;100722.53;5075921;28;20028;-84
2021/12/21 05:14:16;;;;;;;6.05;2.72;;;;;;;1.53;71.23;100719.13;5074147;28;20036;-84
2021/12/21 05:16:41;;;;;;;4.40;2.50;;;;;;;1.52;71.47;100720.91;5091549;28;20032;-84
2021/12/21 05:19:06;;;;;;;5.88;2.70;;;;;;;1.48;71.17;100713.19;5073652;28;20198;-86
2021/12/21 05:21:32;;;;;;;6.47;2.60;;;;;;;1.42;71.35;100716.91;5090262;28;20552;-83
2021/12/21 05:23:57;;;;;;;5.95;2.80;;;;;;;1.39;70.53;100716.16;5075828;28;20078;-85
2021/12/21 05:26:23;;;;;;;4.68;2.40;;;;;;;1.40;71.58;100709.97;5072218;28;20032;-85
2021/12/21 05:28:48;;;;;;;5.35;2.53;;;;;;;1.38;71.72;100707.41;5074534;28;20035;-83
2021/12/21 05:31:14;;;;;;;5.57;2.60;;;;;;;1.35;71.20;100711.94;5074089;28;20044;-83
2021/12/21 05:33:39;;;;;;;6.05;2.30;;;;;;;1.37;71.38;100716.22;5075388;28;20032;-84
2021/12/21 05:36:05;;;;;;;5.10;2.78;;;;;;;1.39;71.72;100705.63;5074377;28;20071;-84
2021/12/21 05:38:33;;;;;;;5.68;2.88;;;;;;;1.42;70.73;100710.75;5090084;28;20035;-85
2021/12/21 05:41:05;;;;;;;3.70;2.70;;;;;;;1.38;70.88;100710.03;5074465;28;20100;-84
2021/12/21 05:43:31;;;;;;;7.10;2.75;;;;;;;1.36;71.15;100711.00;5076260;28;20032;-86
2021/12/21 05:45:56;;;;;;;4.07;1.98;;;;;;;1.40;71.46;100710.81;5073375;28;20029;-83
2021/12/21 05:48:21;;;;;;;4.60;2.40;;;;;;;1.42;71.26;100705.50;5073366;28;20039;-84
2021/12/21 05:50:47;;;;;;;6.78;2.30;;;;;;;1.42;71.21;100708.13;5075318;28;20039;-84
2021/12/21 05:53:12;;;;;;;6.30;2.40;;;;;;;1.34;71.04;100708.44;5073795;28;20086;-85
2021/12/21 05:55:39;;;;;;;9.48;2.95;;;;;;;1.26;71.12;100710.53;5091963;28;20042;-84
2021/12/21 05:58:05;;;;;;;5.25;2.40;;;;;;;1.24;71.42;100710.59;5074312;28;20032;-85
2021/12/21 06:00:33;;;;;;;9.43;2.85;;;;;;;1.33;71.56;100712.00;5089978;28;20038;-85
2021/12/21 06:02:58;;;;;;;7.30;2.88;;;;;;;1.37;71.65;100718.00;5072345;28;20048;-85
2021/12/21 06:05:24;;;;;;;5.22;2.75;;;;;;;1.34;71.20;100718.13;5072861;28;20040;-84
2021/12/21 06:07:52;;;;;;;6.35;2.78;;;;;;;1.32;70.53;100728.72;5073441;28;20048;-83
2021/12/21 06:10:27;;;;;;;5.53;2.70;;;;;;;1.34;71.07;100726.03;5088891;28;20040;-84
2021/12/21 06:13:28;;;;;;;4.63;3.10;;;;;;;1.14;70.87;100722.41;5073414;28;20035;-85
2021/12/21 06:26:15;;;;;;;4.82;2.45;;;;;;;1.24;71.57;100715.00;5091683;28;20060;-85
2021/12/21 06:28:42;;;;;;;4.30;3.03;;;;;;;1.22;70.98;100712.41;5073960;28;20064;-84
2021/12/21 06:31:08;;;;;;;5.13;3.03;;;;;;;1.24;71.38;100713.22;5072111;28;20058;-85
2021/12/21 06:33:34;;;;;;;7.47;3.58;;;;;;;1.24;71.08;100717.63;5073716;28;20508;-86
2021/12/21 06:35:59;;;;;;;7.13;4.20;;;;;;;1.27;71.01;100717.50;5072366;28;20045;-85
2021/12/21 06:38:25;;;;;;;6.20;3.03;;;;;;;1.22;71.11;100719.47;5070679;28;20036;-80
2021/12/21 06:40:51;;;;;;;5.57;2.78;;;;;;;0.98;70.80;100717.78;5070449;28;20107;-78
2021/12/21 06:43:17;;;;;;;6.35;3.33;;;;;;;1.09;70.86;100728.75;5087405;28;20099;-83
2021/12/21 06:45:48;;;;;;;5.53;2.97;;;;;;;1.13;71.06;100727.72;5073548;28;20477;-82
2021/12/21 06:51:15;;;;;;;6.43;2.75;;;;;;;1.04;71.18;100733.34;5074131;28;20068;-81
2021/12/21 06:53:41;;;;;;;5.22;2.72;;;;;;;1.07;70.75;100741.13;5073704;28;20100;-81
2021/12/21 06:56:08;;;;;;;7.88;2.40;;;;;;;1.09;71.32;100737.53;5074045;28;20127;-82
2021/12/21 06:58:33;;;;;;;10.38;2.97;;;;;;;1.10;71.69;100743.66;5073972;28;20138;-81
2021/12/21 07:00:59;;;;;;;10.35;4.93;;;;;;;1.11;70.66;100735.69;5073471;28;20963;-81
2021/12/21 07:03:25;;;;;;;17.00;14.05;;;;;;;1.10;70.94;100733.97;5074421;28;20500;-82
2021/12/21 07:05:51;;;;;;;11.40;8.55;;;;;;;1.12;71.40;100736.53;5090087;28;20037;-81
2021/12/21 07:08:23;;;;;;;8.98;5.03;;;;;;;1.13;71.00;100730.34;5089661;28;20089;-80
2021/12/21 07:10:56;;;;;;;10.50;4.00;;;;;;;1.10;71.40;100733.09;5087366;28;20040;-81
2021/12/21 07:18:51;;;;;;;5.38;3.15;;;;;;;1.09;70.97;100737.53;5088106;28;20898;-82
2021/12/21 07:21:16;;;;;;;5.72;3.10;;;;;;;1.05;71.01;100735.94;5072652;28;20036;-82
2021/12/21 07:23:42;;;;;;;7.20;3.53;;;;;;;1.05;70.85;100735.94;5089109;28;20039;-81
2021/12/21 07:26:07;;;;;;;6.75;2.80;;;;;;;1.04;71.56;100743.88;5087444;28;20051;-81
2021/12/21 07:28:33;;;;;;;6.00;3.22;;;;;;;1.04;71.28;100747.38;5089329;28;20032;-81
2021/12/21 07:30:58;;;;;;;6.07;2.88;;;;;;;1.06;71.00;100749.94;5071527;28;20035;-81
2021/12/21 07:33:24;;;;;;;7.25;3.78;;;;;;;1.05;70.69;100743.81;5069658;28;20040;-81
2021/12/21 07:35:49;;;;;;;6.40;3.42;;;;;;;1.02;70.98;100740.44;5070297;28;20031;-81
2021/12/21 07:38:15;;;;;;;5.95;3.45;;;;;;;0.99;70.70;100737.94;5084316;28;20035;-81
2021/12/21 07:40:41;;;;;;;5.53;3.05;;;;;;;1.04;70.89;100747.38;5068101;28;20033;-81
2021/12/21 07:43:06;;;;;;;4.90;3.20;;;;;;;0.98;70.69;100744.97;5089473;28;20092;-81
2021/12/21 07:45:32;;;;;;;5.07;2.92;;;;;;;1.03;70.85;100742.16;5071655;28;20468;-81
2021/12/21 07:47:58;;;;;;;8.23;3.63;;;;;;;1.00;70.60;100739.66;5090186;28;20139;-81
2021/12/21 07:50:23;;;;;;;7.35;3.85;;;;;;;1.03;70.50;100748.28;5091674;28;20059;-82
2021/12/21 07:52:50;;;;;;;10.50;4.72;;;;;;;1.05;70.86;100746.47;5091468;28;20040;-80
2021/12/21 07:55:15;;;;;;;7.18;4.28;;;;;;;1.07;71.31;100751.66;5076797;28;20044;-80
2021/12/21 07:57:41;;;;;;;9.20;4.35;;;;;;;1.12;70.74;100754.97;5074900;28;20089;-81
2021/12/21 08:00:08;;;;;;;10.95;4.68;;;;;;;1.11;71.21;100755.91;5093354;28;20734;-81
2021/12/21 08:02:34;;;;;;;7.07;3.83;;;;;;;1.07;71.66;100757.78;5092603;28;20058;-81
2021/12/21 08:05:04;;;;;;;9.10;3.72;;;;;;;1.09;71.54;100750.69;5091927;28;20040;-81
2021/12/21 08:07:34;;;;;;;7.20;3.40;;;;;;;1.12;71.67;100760.25;5077342;28;20607;-81
2021/12/21 08:10:06;;;;;;;8.82;4.10;;;;;;;1.12;71.70;100749.72;5091468;28;20058;-81
2021/12/21 08:12:32;;;;;;;6.82;3.35;;;;;;;1.12;72.26;100745.31;5075714;28;20032;-81
2021/12/21 08:14:57;;;;;;;7.38;3.50;;;;;;;1.09;72.26;100748.06;5075884;28;20072;-82
2021/12/21 08:17:23;;;;;;;5.65;3.38;;;;;;;1.10;72.11;100759.44;5076794;28;20033;-80
2021/12/21 08:19:48;;;;;;;8.23;3.63;;;;;;;1.10;72.01;100749.78;5092944;28;20029;-80
2021/12/21 08:22:14;;;;;;;6.75;3.72;;;;;;;1.14;72.18;100756.63;5092188;28;20035;-81
2021/12/21 08:24:41;;;;;;;6.70;3.47;;;;;;;1.18;72.84;100754.75;5075386;28;20032;-81
2021/12/21 08:27:07;;;;;;;9.80;3.88;;;;;;;1.18;72.15;100749.47;5075531;28;20051;-80
2021/12/21 08:29:32;;;;;;;8.55;4.25;;;;;;;1.19;72.34;100751.19;5075318;28;20032;-81
2021/12/21 08:31:58;;;;;;;9.57;4.07;;;;;;;1.21;72.78;100741.44;5094071;28;20081;-81
2021/12/21 08:34:23;;;;;;;8.52;3.90;;;;;;;1.18;72.77;100754.75;5091558;28;20985;-83
2021/12/21 08:36:49;;;;;;;8.40;4.25;;;;;;;1.21;73.30;100755.47;5076236;28;20039;-81
2021/12/21 08:39:16;;;;;;;7.47;4.20;;;;;;;1.20;72.79;100750.28;5075566;28;20040;-81
2021/12/21 08:41:43;;;;;;;8.40;3.92;;;;;;;1.24;73.19;100754.50;5090155;28;20028;-80
2021/12/21 08:44:11;;;;;;;7.78;4.63;;;;;;;1.24;73.61;100750.09;5074839;28;20093;-80
2021/12/21 08:46:38;;;;;;;7.82;4.00;;;;;;;1.23;72.98;100747.53;5088443;28;20040;-82
2021/12/21 08:49:04;;;;;;;7.75;3.63;;;;;;;1.26;73.39;100747.41;5088496;28;20032;-83
2021/12/21 08:51:29;;;;;;;9.80;4.15;;;;;;;1.27;73.71;100731.53;5090477;28;20036;-82
2021/12/21 08:53:54;;;;;;;6.80;3.85;;;;;;;1.32;73.82;100749.78;5074310;28;20037;-81
2021/12/21 08:56:20;;;;;;;9.30;3.28;;;;;;;1.25;73.53;100740.41;5090824;28;20065;-81
2021/12/21 08:58:45;;;;;;;6.00;3.35;;;;;;;1.29;74.13;100752.53;5087635;28;20040;-81
2021/12/21 09:01:10;;;;;;;6.40;3.72;;;;;;;1.33;73.90;100754.13;5089801;28;20032;-82
2021/12/21 09:03:36;;;;;;;10.20;3.92;;;;;;;1.35;73.79;100760.22;5091630;28;20037;-82
2021/12/21 09:06:02;;;;;;;6.82;4.10;;;;;;;1.38;73.67;100752.19;5091236;28;20040;-81
2021/12/21 09:08:27;;;;;;;8.98;3.80;;;;;;;1.39;74.04;100753.91;5074176;28;20032;-82
2021/12/21 09:10:53;;;;;;;8.23;3.58;;;;;;;1.44;74.08;100761.66;5076081;28;20047;-80
2021/12/21 09:13:19;;;;;;;6.32;4.10;;;;;;;1.46;74.57;100755.41;5074019;28;20035;-82
2021/12/21 09:15:44;;;;;;;6.90;3.22;;;;;;;1.46;74.16;100750.13;5074577;28;20164;-81
2021/12/21 09:18:10;;;;;;;4.97;3.10;;;;;;;1.40;74.04;100760.03;5090088;28;20036;-82
2021/12/21 09:20:36;;;;;;;5.82;3.05;;;;;;;1.38;74.57;100760.09;5073133;28;20040;-82
2021/12/21 09:23:02;;;;;;;6.05;3.20;;;;;;;1.43;74.53;100758.16;5073472;28;20035;-81
2021/12/21 09:25:28;;;;;;;7.90;3.10;;;;;;;1.47;75.06;100761.53;5074176;28;20036;-81
2021/12/21 09:27:54;;;;;;;6.05;2.97;;;;;;;1.45;74.13;100758.09;5073883;28;20024;-81
2021/12/21 09:30:21;;;;;;;4.80;3.00;;;;;;;1.47;73.72;100753.63;5090488;28;20037;-81
2021/12/21 09:32:47;;;;;;;5.45;3.20;;;;;;;1.46;74.10;100765.94;5073820;28;20095;-82
2021/12/21 09:35:13;;;;;;;7.57;2.70;;;;;;;1.46;74.11;100758.03;5093358;28;20059;-83
2021/12/21 09:37:39;;;;;;;3.63;2.70;;;;;;;1.50;74.71;100772.81;5091249;28;20028;-81
2021/12/21 09:40:07;;;;;;;5.57;2.95;;;;;;;1.48;74.57;100769.38;5073860;28;20068;-82
2021/12/21 09:42:32;;;;;;;5.50;3.55;;;;;;;1.46;74.26;100775.63;5090655;28;20794;-80
2021/12/21 09:44:58;;;;;;;6.65;2.95;;;;;;;1.49;74.04;100768.47;5091692;28;20071;-82
2021/12/21 09:47:26;;;;;;;6.28;2.60;;;;;;;1.52;74.36;100765.69;5074054;28;20032;-81
2021/12/21 09:49:52;;;;;;;6.50;2.65;;;;;;;1.51;74.30;100763.97;5074290;28;20032;-82
2021/12/21 09:52:20;;;;;;;4.82;3.03;;;;;;;1.55;74.73;100762.09;5073758;28;20150;-81
2021/12/21 09:54:45;;;;;;;7.80;2.80;;;;;;;1.54;74.51;100763.00;5091474;28;20032;-82
2021/12/21 09:57:15;;;;;;;9.00;2.78;;;;;;;1.58;74.49;100764.59;5073732;28;20063;-82
2021/12/21 09:59:42;;;;;;;5.13;3.00;;;;;;;1.58;74.71;100756.69;5090848;28;20074;-81
2021/12/21 10:02:07;;;;;;;4.78;3.17;;;;;;;1.63;74.72;100756.50;5071082;28;20138;-82
2021/12/21 10:04:44;;;;;;;4.57;2.75;;;;;;;1.62;74.84;100754.78;5089805;28;20047;-81
2021/12/21 10:07:10;;;;;;;5.22;3.17;;;;;;;1.67;74.73;100764.22;5071894;28;20055;-82
2021/12/21 10:09:36;;;;;;;5.90;3.40;;;;;;;1.70;75.03;100760.59;5091243;28;20036;-82
2021/12/21 10:12:02;;;;;;;7.28;2.97;;;;;;;1.66;75.19;100756.38;5088994;28;20056;-82
2021/12/21 10:14:28;;;;;;;5.25;3.50;;;;;;;1.66;75.40;100746.69;5089941;28;20040;-82
2021/12/21 10:17:07;;;;;;;7.88;3.17;;;;;;;1.70;75.43;100750.06;5089671;28;20572;-81
2021/12/21 10:19:34;;;;;;;6.70;3.13;;;;;;;1.71;75.04;100759.69;5057698;28;20024;-82
2021/12/21 10:22:10;;;;;;;7.85;3.10;;;;;;;1.72;74.83;100753.50;5089110;28;20036;-82
2021/12/21 10:24:47;;;;;;;5.65;3.15;;;;;;;1.76;75.01;100755.94;5090195;28;20060;-83
2021/12/21 10:27:13;;;;;;;7.85;3.20;;;;;;;1.83;75.02;100751.25;5090460;28;20036;-82
2021/12/21 10:29:43;;;;;;;5.10;3.28;;;;;;;1.84;75.46;100750.34;5072015;28;20105;-82
2021/12/21 10:32:17;;;;;;;7.35;3.65;;;;;;;1.85;74.87;100755.56;5088421;28;20039;-81
2021/12/21 10:35:07;;;;;;;5.07;3.00;;;;;;;1.83;75.36;100751.25;5089223;28;20036;-80
2021/12/21 10:37:38;;;;;;;7.85;2.50;;;;;;;1.89;74.99;100743.09;5068944;28;20049;-83
2021/12/21 10:40:29;;;;;;;8.93;2.90;;;;;;;1.92;75.13;100757.97;5056283;28;20036;-84
2021/12/21 10:43:02;;;;;;;5.20;2.75;;;;;;;1.95;74.79;100742.00;5088710;28;20073;-83
2021/12/21 10:45:36;;;;;;;3.85;2.53;;;;;;;1.96;75.02;100743.72;5089567;28;20036;-81
2021/12/21 10:48:04;;;;;;;8.07;2.38;;;;;;;1.96;74.60;100749.88;5089072;28;20044;-82
2021/12/21 10:50:32;;;;;;;5.45;2.88;;;;;;;2.02;74.35;100743.47;5069850;28;20056;-81
2021/12/21 10:52:58;;;;;;;5.05;2.60;;;;;;;2.04;74.78;100739.84;5070365;28;20044;-81
2021/12/21 10:55:38;;;;;;;5.70;2.53;;;;;;;2.03;74.43;100740.78;5074513;28;20032;-83
2021/12/21 10:58:06;;;;;;;5.20;2.60;;;;;;;2.01;74.27;100732.06;5075111;28;20105;-82
2021/12/21 11:00:32;;;;;;;3.38;2.08;;;;;;;2.06;74.38;100726.59;5089147;28;20032;-83
2021/12/21 11:02:58;;;;;;;5.20;2.30;;;;;;;2.06;74.39;100730.09;5088000;28;20056;-82
2021/12/21 11:05:23;;;;;;;5.40;2.08;;;;;;;2.03;74.33;100717.03;5091261;28;20042;-81
2021/12/21 11:08:16;;;;;;;5.53;2.08;;;;;;;2.04;74.45;100716.09;5090625;28;20047;-80
2021/12/21 11:10:36;;;;;;;6.75;2.50;;;;;;;2.08;74.46;100717.69;5089331;28;20056;-82
2021/12/21 11:13:13;;;;;;;3.70;2.20;;;;;;;2.05;73.98;100712.53;5088230;28;20059;-81
2021/12/21 11:15:44;;;;;;;4.93;2.35;;;;;;;2.09;73.45;100714.13;5086554;28;20031;-84
2021/12/21 11:18:16;;;;;;;5.03;2.28;;;;;;;2.06;74.06;100714.25;5069881;28;20047;-82
2021/12/21 11:20:43;;;;;;;3.83;2.10;;;;;;;2.10;73.57;100705.28;5069991;28;20029;-81
2021/12/21 11:23:12;;;;;;;6.68;2.40;;;;;;;2.11;73.64;100695.59;5069477;28;20032;-82
2021/12/21 11:25:42;;;;;;;6.90;2.75;;;;;;;2.12;74.21;100692.91;5072157;28;20031;-86
2021/12/21 11:28:08;;;;;;;5.78;2.13;;;;;;;2.13;73.90;100691.97;5090900;28;20043;-81
2021/12/21 11:30:34;;;;;;;5.55;2.75;;;;;;;2.11;74.11;100683.25;5088717;28;20028;-81
2021/12/21 11:33:02;;;;;;;5.45;2.35;;;;;;;2.11;73.61;100690.31;5074455;28;20032;-81
2021/12/21 11:38:01;;;;;;;4.82;2.40;;;;;;;2.14;74.20;100683.13;5090987;28;20097;-82
2021/12/21 11:40:32;;;;;;;5.28;2.50;;;;;;;2.16;74.05;100685.69;5073592;28;20401;-81
2021/12/21 11:43:12;;;;;;;5.28;2.50;;;;;;;2.15;74.42;100682.22;5073798;28;20028;-81
2021/12/21 11:45:47;;;;;;;3.70;2.53;;;;;;;2.15;74.14;100674.28;5059619;28;20401;-81
2021/12/21 11:48:28;;;;;;;4.90;2.38;;;;;;;2.22;73.71;100674.88;5092574;28;20028;-80
2021/12/21 11:51:04;;;;;;;4.53;2.28;;;;;;;2.27;73.86;100674.69;5075831;28;20126;-81
2021/12/21 11:53:29;;;;;;;5.97;2.63;;;;;;;2.26;74.07;100667.69;5074012;28;20096;-81
2021/12/21 11:55:55;;;;;;;7.28;2.70;;;;;;;2.27;74.52;100666.75;5074241;28;20067;-81
2021/12/21 11:58:23;;;;;;;5.93;2.80;;;;;;;2.35;73.88;100651.44;5092387;28;20032;-81
2021/12/21 12:01:01;;;;;;;7.47;2.90;;;;;;;2.39;74.60;100655.69;5091973;28;20038;-80
2021/12/21 12:03:29;;;;;;;7.72;3.35;;;;;;;2.41;74.47;100659.13;5092668;28;20055;-80
2021/12/21 12:05:57;;;;;;;7.32;3.25;;;;;;;2.41;73.88;100652.06;5058923;28;20048;-81
2021/12/21 12:08:25;;;;;;;8.32;3.08;;;;;;;2.44;74.09;100653.69;5091480;28;20091;-80
2021/12/21 12:10:58;;;;;;;6.00;3.03;;;;;;;2.51;73.79;100642.78;5090927;28;20033;-80
2021/12/21 12:13:40;;;;;;;6.07;2.67;;;;;;;2.51;73.86;100645.44;5059553;28;20036;-81
2021/12/21 12:16:16;;;;;;;5.13;3.25;;;;;;;2.52;73.73;100646.28;5090596;28;20040;-80
2021/12/21 12:18:42;;;;;;;6.47;3.00;;;;;;;2.55;73.30;100645.28;5091049;28;20111;-80
2021/12/21 12:21:25;;;;;;;6.30;3.03;;;;;;;2.56;73.74;100647.84;5091296;28;20028;-81
2021/12/21 12:24:00;;;;;;;5.30;2.85;;;;;;;2.58;73.95;100642.50;5075053;28;20035;-80
2021/12/21 12:26:30;;;;;;;5.65;2.90;;;;;;;2.57;73.91;100643.44;5089739;28;20066;-81